GRO weather

Girona Airport
Girona, Girona, Spain

Public forecast

Using degrees Celsius for public forecast. Weather courtesy of forecast.io.

METAR (pilot weather report)

Retrieved 2019/04/21 04:00 UTC (7 minutes ago):

LEGE 210400Z 05010KT 9999 SCT070 12/08 Q1015

TAF (pilot weather forecast)

Forecast is more than 12 hours old.

Retrieved 2019/04/20 00:27 UTC (1 day ago):

TAF LEGE 202300Z 2100/2124 01010KT 9999 FEW030 TX19/2113Z TN11/2106Z TEMPO 2107/2118 03015G25KT PROB40 TEMPO 2100/2106 4000 SHRA FEW020CB BKN030